Time;durP1;ratioP1;P1;durP2;ratioP2;P2;SDS_P1;SDS_P2;PMS_P1;PMS_P2;Temp;Humidity;BMP_temperature;BMP_pressure;BME280_temperature;BME280_humidity;BME280_pressure;Samples;Min_cycle;Max_cycle;Signal;HPM_P1;HPM_P2
2021/08/29 00:01:19;;;;;;;10.07;8.57;;;;;;;15.83;100.00;99571.38;5114103;28;20231;-73
2021/08/29 00:03:47;;;;;;;9.57;8.57;;;;;;;15.98;100.00;99562.97;5114295;28;20313;-73
2021/08/29 00:06:13;;;;;;;10.18;9.05;;;;;;;15.99;100.00;99565.56;5113956;28;20199;-73
2021/08/29 00:08:40;;;;;;;10.27;9.18;;;;;;;15.96;100.00;99562.22;5113911;28;20280;-72
2021/08/29 00:11:07;;;;;;;9.88;8.82;;;;;;;16.00;100.00;99567.28;5114434;28;20184;-73
2021/08/29 00:13:33;;;;;;;10.27;9.27;;;;;;;15.95;100.00;99558.66;5113710;28;20203;-73
2021/08/29 00:16:01;;;;;;;10.25;9.15;;;;;;;16.16;100.00;99557.88;5114179;28;20271;-73
2021/08/29 00:18:27;;;;;;;9.50;8.45;;;;;;;16.02;100.00;99561.72;5114158;28;20491;-73
2021/08/29 00:20:55;;;;;;;10.95;9.90;;;;;;;16.16;100.00;99555.16;5113949;28;20663;-73
2021/08/29 00:23:22;;;;;;;10.10;8.52;;;;;;;16.20;100.00;99556.66;5114090;28;20198;-73
2021/08/29 00:25:48;;;;;;;9.98;8.75;;;;;;;16.20;100.00;99552.06;5113603;28;20290;-72
2021/08/29 00:28:15;;;;;;;9.13;8.23;;;;;;;16.10;100.00;99548.41;5114032;28;20191;-72
2021/08/29 00:30:41;;;;;;;9.32;8.43;;;;;;;15.94;100.00;99537.94;5113553;28;20294;-72
2021/08/29 00:33:08;;;;;;;9.90;8.90;;;;;;;15.92;100.00;99541.72;5113333;28;20183;-72
2021/08/29 00:35:35;;;;;;;9.77;8.77;;;;;;;16.10;100.00;99544.78;5112978;28;20210;-72
2021/08/29 00:38:03;;;;;;;9.27;8.23;;;;;;;15.89;100.00;99542.84;5113790;28;20191;-72
2021/08/29 00:40:30;;;;;;;9.88;8.88;;;;;;;15.79;100.00;99545.44;5113718;28;20230;-72
2021/08/29 00:42:56;;;;;;;10.25;7.95;;;;;;;15.95;100.00;99542.34;5113748;28;20183;-72
2021/08/29 00:45:23;;;;;;;9.30;7.80;;;;;;;15.98;100.00;99541.25;5113717;28;20284;-72
2021/08/29 00:47:50;;;;;;;8.95;8.05;;;;;;;15.86;100.00;99532.25;5113880;28;20205;-73
2021/08/29 00:50:17;;;;;;;8.75;6.93;;;;;;;15.88;100.00;99541.13;5113156;28;20184;-73
2021/08/29 00:52:44;;;;;;;7.35;6.65;;;;;;;15.79;100.00;99539.16;5113413;28;20187;-72
2021/08/29 00:55:13;;;;;;;7.70;7.00;;;;;;;15.73;100.00;99542.38;5113395;28;20290;-73
2021/08/29 00:57:40;;;;;;;7.28;6.63;;;;;;;15.70;100.00;99543.44;5113392;28;20594;-72
2021/08/29 01:00:09;;;;;;;6.53;5.93;;;;;;;15.71;100.00;99538.91;5113160;28;20223;-72
2021/08/29 01:02:36;;;;;;;8.93;6.65;;;;;;;15.67;100.00;99537.38;5112896;28;20771;-73
2021/08/29 01:05:05;;;;;;;7.93;7.00;;;;;;;15.69;100.00;99547.13;5113097;28;20219;-72
2021/08/29 01:07:37;;;;;;;7.18;6.47;;;;;;;15.73;100.00;99543.22;5112912;28;20194;-73
2021/08/29 01:10:07;;;;;;;7.78;7.07;;;;;;;15.83;100.00;99540.66;5113121;28;20697;-73
2021/08/29 01:12:35;;;;;;;9.00;7.53;;;;;;;15.87;100.00;99533.97;5112717;28;20274;-73
2021/08/29 01:15:05;;;;;;;8.35;7.50;;;;;;;15.75;100.00;99535.81;5113164;28;20225;-72
2021/08/29 01:17:34;;;;;;;9.35;8.23;;;;;;;15.88;100.00;99535.72;5113030;28;20190;-73
2021/08/29 01:20:09;;;;;;;9.75;7.68;;;;;;;16.07;100.00;99545.91;5112972;28;20652;-73
2021/08/29 01:22:38;;;;;;;10.68;9.60;;;;;;;16.00;100.00;99534.69;5112533;28;20189;-72
2021/08/29 01:25:06;;;;;;;10.20;8.38;;;;;;;15.89;100.00;99537.41;5112543;28;20215;-72
2021/08/29 01:27:43;;;;;;;9.45;8.55;;;;;;;16.04;100.00;99538.03;5112786;28;20654;-71
2021/08/29 01:30:13;;;;;;;10.55;8.10;;;;;;;15.75;100.00;99534.97;5112785;28;20179;-72
2021/08/29 01:32:41;;;;;;;9.90;8.02;;;;;;;15.87;100.00;99536.69;5112957;28;20219;-71
2021/08/29 01:35:09;;;;;;;8.60;7.70;;;;;;;15.83;100.00;99532.50;5112920;28;20555;-72
2021/08/29 01:37:36;;;;;;;10.05;8.68;;;;;;;15.70;100.00;99523.59;5112459;28;20193;-72
2021/08/29 01:40:04;;;;;;;12.10;9.95;;;;;;;15.79;100.00;99525.59;5112571;28;20278;-72
2021/08/29 01:42:31;;;;;;;11.73;8.82;;;;;;;15.89;100.00;99525.69;5112736;28;20992;-72
2021/08/29 01:44:59;;;;;;;11.18;10.05;;;;;;;15.93;100.00;99527.19;5112438;28;20318;-72
2021/08/29 01:47:27;;;;;;;12.50;9.65;;;;;;;15.80;100.00;99527.31;5112405;28;20194;-72
2021/08/29 01:49:54;;;;;;;11.73;9.77;;;;;;;15.82;100.00;99525.34;5112203;28;20209;-72
2021/08/29 01:52:20;;;;;;;11.20;10.05;;;;;;;15.87;100.00;99523.09;5112597;28;20617;-72
2021/08/29 01:54:47;;;;;;;11.55;9.95;;;;;;;15.77;100.00;99524.84;5112730;28;20187;-72
2021/08/29 01:57:14;;;;;;;11.65;10.30;;;;;;;15.99;100.00;99519.41;5112678;28;20213;-72
2021/08/29 01:59:42;;;;;;;11.40;10.23;;;;;;;15.80;100.00;99522.72;5112775;28;20873;-73
2021/08/29 02:02:09;;;;;;;13.93;10.82;;;;;;;15.87;100.00;99527.69;5112212;28;20227;-72
2021/08/29 02:04:38;;;;;;;12.27;10.60;;;;;;;15.85;100.00;99522.34;5112306;28;20313;-72
2021/08/29 02:07:13;;;;;;;12.05;10.70;;;;;;;15.69;100.00;99521.84;5112364;28;20535;-73
2021/08/29 02:09:44;;;;;;;11.93;10.73;;;;;;;15.77;100.00;99523.00;5112462;28;20178;-73
2021/08/29 02:12:12;;;;;;;13.70;11.38;;;;;;;15.83;100.00;99521.66;5112046;28;20219;-73
2021/08/29 02:14:44;;;;;;;13.65;11.65;;;;;;;15.85;100.00;99530.50;5112041;28;20179;-73
2021/08/29 02:17:11;;;;;;;17.40;11.05;;;;;;;15.92;100.00;99525.44;5112490;28;20192;-72
2021/08/29 02:19:42;;;;;;;11.27;10.05;;;;;;;15.87;100.00;99527.69;5112464;28;20274;-73
2021/08/29 02:22:08;;;;;;;12.02;10.73;;;;;;;15.80;100.00;99513.72;5112343;28;20183;-73
2021/08/29 02:24:37;;;;;;;13.10;10.95;;;;;;;15.77;100.00;99514.84;5112219;28;20695;-73
2021/08/29 02:27:04;;;;;;;13.45;10.95;;;;;;;15.88;100.00;99519.41;5112172;28;20635;-73
2021/08/29 02:29:31;;;;;;;13.40;11.93;;;;;;;15.85;100.00;99522.34;5111793;28;20271;-73
2021/08/29 02:31:57;;;;;;;15.10;11.63;;;;;;;15.70;100.00;99518.16;5112112;28;20257;-73
2021/08/29 02:34:24;;;;;;;12.38;10.35;;;;;;;15.87;100.00;99523.09;5112031;28;20722;-73
2021/08/29 02:36:53;;;;;;;13.27;11.65;;;;;;;15.73;99.91;99520.66;5112196;28;20224;-72
2021/08/29 02:39:21;;;;;;;13.98;11.30;;;;;;;15.88;98.71;99513.97;5111711;28;20190;-72
2021/08/29 02:41:51;;;;;;;13.43;11.23;;;;;;;15.83;98.12;99521.66;5111923;28;20183;-72
2021/08/29 02:44:19;;;;;;;13.48;11.65;;;;;;;15.76;97.82;99514.97;5112044;28;20207;-73
2021/08/29 02:46:46;;;;;;;12.82;11.15;;;;;;;15.68;97.50;99520.13;5111774;28;20183;-73
2021/08/29 02:49:13;;;;;;;13.88;11.75;;;;;;;15.81;97.00;99515.47;5111600;28;20199;-73
2021/08/29 02:51:41;;;;;;;14.65;11.68;;;;;;;15.79;96.02;99523.75;5112111;28;20271;-73
2021/08/29 02:54:09;;;;;;;12.60;11.20;;;;;;;15.69;95.87;99516.41;5111926;28;20549;-72
2021/08/29 02:56:37;;;;;;;12.80;11.05;;;;;;;15.68;96.18;99515.56;5111642;28;20194;-73
2021/08/29 02:59:04;;;;;;;16.08;11.23;;;;;;;15.78;95.63;99522.03;5113770;28;20278;-73
2021/08/29 03:01:31;;;;;;;12.02;10.82;;;;;;;15.74;94.93;99525.13;5115939;28;20710;-73
2021/08/29 03:03:58;;;;;;;14.48;11.43;;;;;;;15.70;95.13;99521.72;5115654;28;20624;-73
2021/08/29 03:06:25;;;;;;;14.70;10.82;;;;;;;15.63;96.19;99521.38;5115440;28;20225;-72
2021/08/29 03:08:53;;;;;;;12.20;10.85;;;;;;;15.68;95.56;99507.41;5115665;28;20198;-72
2021/08/29 03:11:21;;;;;;;12.57;10.63;;;;;;;15.74;95.34;99523.25;5115169;28;20275;-73
2021/08/29 03:13:48;;;;;;;11.82;10.57;;;;;;;15.70;95.41;99513.59;5115396;28;20195;-73
2021/08/29 03:16:16;;;;;;;14.93;10.60;;;;;;;15.73;95.51;99509.78;5115391;28;20179;-72
2021/08/29 03:18:44;;;;;;;13.15;10.18;;;;;;;15.77;94.49;99506.69;5115029;28;20187;-73
2021/08/29 03:21:11;;;;;;;12.77;11.10;;;;;;;15.68;95.03;99512.00;5115002;28;20653;-73
2021/08/29 03:23:38;;;;;;;13.50;11.45;;;;;;;15.58;96.25;99518.16;5114931;28;20193;-73
2021/08/29 03:26:05;;;;;;;12.15;10.50;;;;;;;15.65;96.21;99513.09;5115044;28;20235;-72
2021/08/29 03:28:34;;;;;;;11.70;10.18;;;;;;;15.57;96.08;99512.84;5115141;28;20696;-73
2021/08/29 03:31:00;;;;;;;12.43;10.55;;;;;;;15.53;96.53;99500.50;5115347;28;20223;-73
2021/08/29 03:33:29;;;;;;;10.98;9.82;;;;;;;15.52;96.31;99494.22;5115224;28;20230;-72
2021/08/29 03:35:58;;;;;;;11.27;10.07;;;;;;;15.59;96.05;99489.16;5115123;28;20183;-72
2021/08/29 03:38:27;;;;;;;13.43;10.90;;;;;;;15.69;94.90;99492.84;5114883;28;20186;-73
2021/08/29 03:40:54;;;;;;;13.00;10.18;;;;;;;15.62;96.04;99491.63;5114479;28;20238;-73
2021/08/29 03:43:21;;;;;;;12.68;10.88;;;;;;;15.66;95.94;99497.69;5114379;28;20271;-73
2021/08/29 03:45:50;;;;;;;13.20;11.60;;;;;;;15.63;96.17;99510.50;5114548;28;20204;-73
2021/08/29 03:48:17;;;;;;;13.57;10.52;;;;;;;15.64;96.08;99508.66;5114726;28;20644;-73
2021/08/29 03:50:45;;;;;;;13.40;10.98;;;;;;;15.56;97.05;99501.13;5114147;28;20189;-73
2021/08/29 03:53:13;;;;;;;13.60;11.43;;;;;;;15.67;95.70;99508.41;5114685;28;20183;-74
2021/08/29 03:55:42;;;;;;;14.05;11.13;;;;;;;15.50;96.52;99507.03;5114117;28;20201;-72
2021/08/29 03:58:09;;;;;;;15.70;12.18;;;;;;;15.56;96.13;99508.41;5114565;28;20643;-72
2021/08/29 04:00:36;;;;;;;15.88;12.60;;;;;;;15.45;97.08;99516.56;5114516;28;20206;-72
2021/08/29 04:03:05;;;;;;;14.93;11.65;;;;;;;15.46;97.78;99504.69;5114137;28;20582;-73
2021/08/29 04:05:32;;;;;;;14.80;12.15;;;;;;;15.31;99.04;99512.19;5114314;28;20225;-72
2021/08/29 04:08:01;;;;;;;15.57;13.10;;;;;;;15.32;99.06;99511.22;5114477;28;20183;-73
2021/08/29 04:10:29;;;;;;;15.20;12.05;;;;;;;15.38;98.58;99510.75;5114111;28;20205;-73
2021/08/29 04:12:55;;;;;;;16.73;11.85;;;;;;;15.39;98.52;99512.47;5114327;28;20283;-71
2021/08/29 04:15:23;;;;;;;14.73;11.80;;;;;;;15.50;97.86;99511.63;5113788;28;20286;-73
2021/08/29 04:17:50;;;;;;;14.05;11.45;;;;;;;15.34;98.93;99509.25;5114249;28;20636;-72
2021/08/29 04:20:19;;;;;;;16.10;12.57;;;;;;;15.43;98.53;99503.97;5114299;28;20203;-72
2021/08/29 04:22:46;;;;;;;15.40;11.70;;;;;;;15.39;98.67;99502.47;5114248;28;20189;-73
2021/08/29 04:25:14;;;;;;;20.00;12.07;;;;;;;15.45;97.52;99503.00;5114048;28;20326;-73
2021/08/29 04:27:41;;;;;;;12.98;10.77;;;;;;;15.41;97.07;99500.50;5113678;28;20194;-73
2021/08/29 04:30:09;;;;;;;14.00;11.23;;;;;;;15.43;97.32;99501.25;5113933;28;20207;-71
2021/08/29 04:32:38;;;;;;;14.63;11.68;;;;;;;15.51;96.71;99505.19;5113930;28;20211;-72
2021/08/29 04:35:07;;;;;;;13.05;10.35;;;;;;;15.57;95.89;99507.41;5113979;28;20612;-72
2021/08/29 04:37:35;;;;;;;13.65;11.70;;;;;;;15.62;94.74;99513.34;5113431;28;20290;-72
2021/08/29 04:40:01;;;;;;;13.07;10.25;;;;;;;15.50;95.62;99514.34;5113802;28;20183;-72
2021/08/29 04:42:28;;;;;;;13.70;10.63;;;;;;;15.52;95.52;99513.22;5113503;28;20281;-73
2021/08/29 04:44:54;;;;;;;13.00;10.52;;;;;;;15.54;94.53;99519.38;5113615;28;20732;-72
2021/08/29 04:47:22;;;;;;;13.07;11.35;;;;;;;15.62;94.91;99516.94;5113685;28;20193;-73
2021/08/29 04:49:49;;;;;;;14.15;11.23;;;;;;;15.53;94.97;99517.66;5113619;28;20535;-73
2021/08/29 04:52:15;;;;;;;13.38;9.43;;;;;;;15.54;94.39;99518.53;5113099;28;20195;-72
2021/08/29 04:54:43;;;;;;;13.32;10.57;;;;;;;15.53;94.29;99509.50;5113768;28;20188;-72
2021/08/29 04:57:10;;;;;;;14.10;11.18;;;;;;;15.58;94.18;99511.84;5113508;28;20202;-73
2021/08/29 04:59:36;;;;;;;14.90;11.65;;;;;;;15.70;92.99;99513.59;5113466;28;20274;-73
2021/08/29 05:02:03;;;;;;;14.73;11.90;;;;;;;15.69;92.36;99514.56;5113146;28;20237;-72
2021/08/29 05:04:30;;;;;;;17.75;12.18;;;;;;;15.70;92.54;99510.88;5112924;28;20189;-71
2021/08/29 05:06:57;;;;;;;14.95;11.60;;;;;;;15.58;93.27;99515.44;5113203;28;20318;-72
2021/08/29 05:09:23;;;;;;;15.50;11.85;;;;;;;15.70;92.57;99520.88;5113490;28;20187;-72
2021/08/29 05:11:51;;;;;;;14.95;11.00;;;;;;;15.66;93.06;99522.97;5112998;28;20215;-72
2021/08/29 05:14:18;;;;;;;15.57;11.40;;;;;;;15.73;92.62;99521.50;5112644;28;20199;-72
2021/08/29 05:16:44;;;;;;;15.85;12.60;;;;;;;15.68;92.38;99525.56;5112884;28;20259;-72
2021/08/29 05:19:11;;;;;;;16.00;12.55;;;;;;;15.69;92.27;99516.41;5113314;28;20602;-73
2021/08/29 05:21:38;;;;;;;17.30;12.95;;;;;;;15.64;91.85;99517.66;5112267;28;20203;-72
2021/08/29 05:24:05;;;;;;;16.17;11.95;;;;;;;15.60;92.14;99523.44;5113308;28;20184;-72
2021/08/29 05:26:32;;;;;;;16.90;11.68;;;;;;;15.58;92.28;99518.16;5113123;28;20306;-73
2021/08/29 05:28:59;;;;;;;17.65;12.05;;;;;;;15.76;91.54;99528.53;5113140;28;20199;-72
2021/08/29 05:31:26;;;;;;;17.48;12.35;;;;;;;15.64;91.84;99523.06;5113071;28;20191;-71
2021/08/29 05:33:53;;;;;;;17.02;13.05;;;;;;;15.73;91.20;99526.94;5112923;28;20210;-72
2021/08/29 05:36:19;;;;;;;17.17;12.95;;;;;;;15.52;92.53;99524.06;5112526;28;20211;-72
2021/08/29 05:38:46;;;;;;;15.20;11.55;;;;;;;15.71;92.02;99523.47;5113039;28;20192;-72
2021/08/29 05:41:12;;;;;;;17.33;12.85;;;;;;;15.60;92.21;99521.63;5112988;28;20191;-71
2021/08/29 05:43:39;;;;;;;15.70;12.10;;;;;;;15.50;93.33;99526.03;5112497;28;20199;-73
2021/08/29 05:46:07;;;;;;;15.38;11.60;;;;;;;15.59;93.70;99527.16;5112849;28;20674;-71
2021/08/29 05:48:34;;;;;;;13.73;10.65;;;;;;;15.55;93.55;99525.66;5113204;28;20184;-71
2021/08/29 05:51:01;;;;;;;15.85;11.77;;;;;;;15.53;93.47;99528.50;5113238;28;20646;-71
2021/08/29 05:53:27;;;;;;;15.30;11.25;;;;;;;15.44;94.02;99523.81;5112746;28;20193;-71
2021/08/29 05:55:55;;;;;;;12.80;10.32;;;;;;;15.52;94.20;99517.78;5112908;28;20655;-72
2021/08/29 05:58:21;;;;;;;14.30;10.45;;;;;;;15.69;93.11;99521.84;5112522;28;20203;-73
2021/08/29 06:00:48;;;;;;;12.65;10.30;;;;;;;15.66;93.43;99516.69;5112919;28;20544;-73
2021/08/29 06:03:16;;;;;;;14.65;11.32;;;;;;;15.63;93.58;99507.78;5113317;28;20513;-73
2021/08/29 06:05:43;;;;;;;13.65;10.73;;;;;;;15.64;93.32;99509.50;5112424;28;20210;-72
2021/08/29 06:08:09;;;;;;;16.73;10.93;;;;;;;15.61;92.91;99504.34;5113025;28;20187;-72
2021/08/29 06:10:36;;;;;;;11.05;9.55;;;;;;;15.59;93.23;99502.75;5112326;28;20290;-72
2021/08/29 06:13:03;;;;;;;13.55;9.27;;;;;;;15.55;94.25;99512.09;5112775;28;20264;-72
2021/08/29 06:15:29;;;;;;;11.43;9.07;;;;;;;15.72;92.52;99508.94;5112832;28;20614;-72
2021/08/29 06:17:56;;;;;;;13.13;9.07;;;;;;;15.52;93.68;99515.94;5112332;28;20293;-72
2021/08/29 06:20:25;;;;;;;12.48;8.27;;;;;;;15.46;94.16;99508.28;5112394;28;20215;-72
2021/08/29 06:22:51;;;;;;;10.07;8.15;;;;;;;15.70;92.91;99499.16;5112447;28;20232;-72
2021/08/29 06:25:18;;;;;;;11.00;8.52;;;;;;;15.57;92.22;99502.84;5112471;28;20278;-72
2021/08/29 06:27:45;;;;;;;9.57;8.38;;;;;;;15.79;91.25;99495.72;5112987;28;20184;-73
2021/08/29 06:30:12;;;;;;;9.93;7.70;;;;;;;15.75;91.35;99502.41;5112672;28;20274;-73
2021/08/29 06:32:39;;;;;;;12.07;8.45;;;;;;;15.75;91.22;99502.41;5112514;28;20643;-73
2021/08/29 06:35:06;;;;;;;10.27;7.95;;;;;;;15.89;90.26;99504.84;5115790;28;20234;-73
2021/08/29 06:37:34;;;;;;;7.82;7.00;;;;;;;15.90;89.55;99495.72;5116405;28;20634;-73
2021/08/29 06:40:01;;;;;;;8.23;6.88;;;;;;;15.91;89.64;99493.84;5116318;28;20288;-72
2021/08/29 06:42:27;;;;;;;9.45;7.28;;;;;;;15.89;89.29;99493.97;5116046;28;20245;-73
2021/08/29 06:44:54;;;;;;;9.20;7.20;;;;;;;15.94;89.09;99499.91;5115606;28;20224;-73
2021/08/29 06:47:20;;;;;;;9.77;6.47;;;;;;;16.14;87.37;99500.97;5115823;28;20215;-73
2021/08/29 06:49:47;;;;;;;7.85;6.50;;;;;;;16.18;86.78;99498.88;5115411;28;20279;-73
2021/08/29 06:52:14;;;;;;;7.70;5.95;;;;;;;16.23;85.50;99493.91;5115714;28;20215;-73
2021/08/29 06:54:42;;;;;;;8.45;6.60;;;;;;;16.17;85.47;99497.16;5115847;28;20524;-72
2021/08/29 06:57:08;;;;;;;7.15;5.93;;;;;;;16.27;84.28;99495.38;5115563;28;20180;-73
2021/08/29 06:59:35;;;;;;;9.70;6.22;;;;;;;16.33;84.57;99500.31;5115399;28;20286;-72
2021/08/29 07:02:01;;;;;;;6.88;5.90;;;;;;;16.57;82.52;99510.09;5115404;28;20223;-72
2021/08/29 07:04:28;;;;;;;8.80;7.18;;;;;;;16.47;81.89;99500.00;5115829;28;20580;-73
2021/08/29 07:06:55;;;;;;;6.88;5.30;;;;;;;16.43;82.79;99506.69;5115240;28;20234;-73
2021/08/29 07:09:21;;;;;;;8.25;6.38;;;;;;;16.36;82.88;99502.75;5115883;28;20206;-72
2021/08/29 07:11:49;;;;;;;9.57;6.47;;;;;;;16.32;83.00;99505.88;5115565;28;20278;-71
2021/08/29 07:14:16;;;;;;;7.28;6.40;;;;;;;16.34;83.26;99512.88;5115541;28;20270;-71
2021/08/29 07:16:42;;;;;;;8.52;6.50;;;;;;;16.58;81.96;99507.25;5115704;28;20196;-71
2021/08/29 07:19:09;;;;;;;8.52;7.20;;;;;;;16.64;81.48;99505.88;5115466;28;20279;-72
2021/08/29 07:21:36;;;;;;;8.48;6.85;;;;;;;16.40;82.24;99504.25;5115218;28;20186;-72
2021/08/29 07:24:02;;;;;;;8.85;6.93;;;;;;;16.44;81.66;99505.72;5115165;28;20294;-72
2021/08/29 07:26:29;;;;;;;8.45;6.65;;;;;;;16.64;80.94;99512.19;5115038;28;20644;-73
2021/08/29 07:28:57;;;;;;;9.13;7.30;;;;;;;16.60;80.69;99509.84;5115126;28;20613;-72
2021/08/29 07:31:23;;;;;;;10.40;7.25;;;;;;;16.90;79.45;99506.41;5114697;28;20231;-72
2021/08/29 07:33:50;;;;;;;8.07;6.93;;;;;;;16.88;78.89;99511.97;5115109;28;20216;-72
2021/08/29 07:36:16;;;;;;;8.57;7.15;;;;;;;16.82;79.28;99515.22;5114516;28;20639;-73
2021/08/29 07:38:43;;;;;;;9.60;7.55;;;;;;;16.91;79.03;99510.84;5114734;28;20231;-73
2021/08/29 07:41:10;;;;;;;10.23;7.28;;;;;;;16.79;79.50;99504.59;5114931;28;20272;-73
2021/08/29 07:43:36;;;;;;;8.00;7.07;;;;;;;16.74;79.49;99511.41;5114562;28;20198;-73
2021/08/29 07:46:04;;;;;;;8.30;6.97;;;;;;;16.92;79.05;99506.28;5114040;28;20199;-73
2021/08/29 07:48:31;;;;;;;8.70;7.20;;;;;;;16.75;79.03;99508.53;5114543;28;20184;-73
2021/08/29 07:50:58;;;;;;;8.48;7.07;;;;;;;16.80;78.99;99510.88;5114764;28;20187;-71
2021/08/29 07:53:24;;;;;;;8.20;7.13;;;;;;;16.94;78.41;99510.59;5114288;28;20200;-73
2021/08/29 07:55:51;;;;;;;9.80;7.07;;;;;;;17.04;78.03;99516.09;5114669;28;20637;-73
2021/08/29 07:58:18;;;;;;;8.40;6.63;;;;;;;17.19;76.89;99522.06;5114154;28;20182;-72
2021/08/29 08:00:45;;;;;;;8.10;7.30;;;;;;;17.28;76.32;99522.13;5114116;28;20233;-73
2021/08/29 08:03:13;;;;;;;8.40;7.15;;;;;;;17.32;76.05;99520.00;5114095;28;20196;-72
2021/08/29 08:05:40;;;;;;;8.73;7.38;;;;;;;17.23;76.21;99518.94;5113872;28;20192;-72
2021/08/29 08:08:07;;;;;;;10.45;7.50;;;;;;;17.07;77.12;99518.53;5114368;28;20229;-73
2021/08/29 08:10:33;;;;;;;11.05;7.30;;;;;;;17.05;77.29;99520.56;5113878;28;20182;-72
2021/08/29 08:13:00;;;;;;;8.15;7.35;;;;;;;16.78;78.02;99515.56;5114228;28;20226;-72
2021/08/29 08:15:27;;;;;;;10.50;7.30;;;;;;;16.98;77.28;99517.50;5113824;28;20188;-72
2021/08/29 08:17:53;;;;;;;9.00;7.10;;;;;;;17.17;75.78;99518.63;5114047;28;20627;-73
2021/08/29 08:20:21;;;;;;;8.93;7.40;;;;;;;16.85;77.80;99516.81;5113807;28;20576;-72
2021/08/29 08:22:48;;;;;;;7.85;6.78;;;;;;;17.06;77.14;99520.41;5113865;28;20259;-72
2021/08/29 08:25:16;;;;;;;8.38;7.55;;;;;;;16.99;77.52;99515.63;5113188;28;20193;-73
2021/08/29 08:27:42;;;;;;;7.82;6.88;;;;;;;17.13;77.36;99522.59;5113299;28;20295;-72
2021/08/29 08:30:10;;;;;;;9.23;6.82;;;;;;;17.28;76.32;99521.28;5113285;28;20290;-72
2021/08/29 08:32:37;;;;;;;7.85;6.70;;;;;;;17.38;76.55;99526.75;5112963;28;20189;-71
2021/08/29 08:35:04;;;;;;;8.90;7.32;;;;;;;17.41;75.85;99531.91;5113559;28;20674;-71
2021/08/29 08:37:34;;;;;;;8.60;6.97;;;;;;;17.42;75.91;99528.22;5113164;28;20642;-72
2021/08/29 08:40:01;;;;;;;8.18;6.65;;;;;;;17.23;75.82;99528.94;5113507;28;20279;-72
2021/08/29 08:42:28;;;;;;;12.05;7.38;;;;;;;17.24;75.75;99531.53;5113370;28;20674;-72
2021/08/29 08:44:54;;;;;;;8.65;7.18;;;;;;;17.47;75.21;99529.53;5112734;28;20278;-72
2021/08/29 08:47:21;;;;;;;10.13;7.15;;;;;;;17.51;75.13;99524.69;5113326;28;20203;-73
2021/08/29 08:49:49;;;;;;;9.70;7.35;;;;;;;17.40;76.20;99527.50;5112969;28;20277;-72
2021/08/29 08:52:19;;;;;;;8.43;7.22;;;;;;;17.39;76.10;99525.75;5113520;28;20294;-73
2021/08/29 08:54:48;;;;;;;8.80;7.25;;;;;;;17.70;74.17;99529.34;5113729;28;20288;-71
2021/08/29 08:57:18;;;;;;;8.32;7.32;;;;;;;17.64;73.02;99528.06;5112721;28;20642;-71
2021/08/29 08:59:45;;;;;;;14.27;7.75;;;;;;;17.59;73.61;99524.88;5113065;28;20196;-73
2021/08/29 09:02:13;;;;;;;10.95;7.78;;;;;;;17.38;74.88;99530.34;5112715;28;20590;-73
2021/08/29 09:04:39;;;;;;;9.10;7.68;;;;;;;17.54;73.57;99521.69;5112549;28;20201;-74
2021/08/29 09:07:06;;;;;;;8.95;7.28;;;;;;;17.66;73.18;99526.06;5112513;28;20211;-71
2021/08/29 09:09:33;;;;;;;9.05;7.40;;;;;;;17.77;72.45;99525.06;5113103;28;20191;-73
2021/08/29 09:12:02;;;;;;;9.88;7.35;;;;;;;18.13;70.15;99526.41;5113034;28;20221;-73
2021/08/29 09:14:39;;;;;;;9.15;7.53;;;;;;;18.26;70.24;99523.41;5112708;28;20190;-72
2021/08/29 09:17:21;;;;;;;9.80;8.00;;;;;;;18.65;68.93;99523.44;5112653;28;20251;-72
2021/08/29 09:19:48;;;;;;;7.68;6.47;;;;;;;17.91;70.64;99530.19;5112824;28;20611;-72
2021/08/29 09:22:15;;;;;;;10.02;7.25;;;;;;;18.04;70.88;99523.63;5112105;28;20273;-72
2021/08/29 09:24:50;;;;;;;8.85;6.80;;;;;;;17.86;71.53;99531.59;5112749;28;20624;-72
2021/08/29 09:27:22;;;;;;;7.22;6.53;;;;;;;17.98;71.02;99540.56;5112356;28;20295;-72
2021/08/29 09:29:50;;;;;;;7.22;6.03;;;;;;;17.95;70.22;99543.53;5112700;28;20183;-73
2021/08/29 09:32:20;;;;;;;15.52;7.47;;;;;;;17.96;70.53;99548.84;5112070;28;20255;-73
2021/08/29 09:34:57;;;;;;;7.20;6.50;;;;;;;18.25;69.81;99545.38;5112520;28;20229;-73
2021/08/29 09:37:23;;;;;;;7.90;6.75;;;;;;;18.23;69.83;99552.81;5112686;28;20640;-73
2021/08/29 09:39:50;;;;;;;7.38;6.57;;;;;;;17.97;69.72;99538.81;5111814;28;20183;-72
2021/08/29 09:42:18;;;;;;;7.30;6.50;;;;;;;17.53;72.52;99541.75;5111886;28;20205;-72
2021/08/29 09:44:44;;;;;;;7.30;6.47;;;;;;;17.32;73.89;99538.16;5112454;28;20193;-72
2021/08/29 09:47:12;;;;;;;7.05;6.03;;;;;;;17.39;74.02;99542.06;5111808;28;20220;-72
2021/08/29 09:49:39;;;;;;;11.20;6.20;;;;;;;17.56;73.30;99537.88;5112274;28;20253;-72
2021/08/29 09:52:08;;;;;;;6.63;5.72;;;;;;;17.67;72.34;99540.53;5112143;28;20202;-72
2021/08/29 09:54:36;;;;;;;6.97;5.88;;;;;;;17.64;73.10;99552.56;5112402;28;20200;-74
2021/08/29 09:57:07;;;;;;;7.38;6.00;;;;;;;17.51;73.41;99543.75;5112024;28;20192;-72
2021/08/29 09:59:46;;;;;;;6.50;5.70;;;;;;;17.72;72.70;99546.41;5112071;28;20277;-72
2021/08/29 10:02:20;;;;;;;6.60;5.80;;;;;;;18.16;71.10;99538.00;5112051;28;20371;-73
2021/08/29 10:04:47;;;;;;;8.45;6.38;;;;;;;18.49;69.74;99540.38;5112393;28;20212;-72
2021/08/29 10:07:15;;;;;;;5.78;5.10;;;;;;;18.39;69.56;99544.97;5112857;28;20343;-73
2021/08/29 10:09:43;;;;;;;4.97;4.47;;;;;;;18.47;68.65;99536.94;5116616;28;20198;-72
2021/08/29 10:12:10;;;;;;;6.63;5.00;;;;;;;18.49;68.32;99534.91;5115825;28;20212;-73
2021/08/29 10:14:41;;;;;;;6.53;4.85;;;;;;;18.39;69.34;99544.97;5116659;28;20686;-72
2021/08/29 10:17:10;;;;;;;5.35;4.85;;;;;;;18.19;70.36;99537.75;5116349;28;20203;-72
2021/08/29 10:19:38;;;;;;;7.15;5.65;;;;;;;18.11;71.03;99533.84;5116258;28;20293;-73
2021/08/29 10:22:05;;;;;;;6.35;5.38;;;;;;;18.16;71.17;99532.56;5116568;28;20266;-72
2021/08/29 10:24:33;;;;;;;4.70;4.30;;;;;;;17.67;73.02;99533.22;5116223;28;20205;-73
2021/08/29 10:27:04;;;;;;;6.63;4.68;;;;;;;17.70;73.41;99535.69;5116730;28;20638;-73
2021/08/29 10:29:39;;;;;;;5.78;5.18;;;;;;;17.77;72.69;99535.13;5116258;28;20235;-73
2021/08/29 10:32:19;;;;;;;5.35;4.20;;;;;;;17.63;73.21;99529.03;5116455;28;20545;-73
2021/08/29 10:34:45;;;;;;;6.00;4.63;;;;;;;17.40;74.49;99541.09;5116562;28;20187;-73
2021/08/29 10:37:12;;;;;;;5.35;4.38;;;;;;;17.60;73.94;99539.34;5116197;28;20188;-73
2021/08/29 10:39:39;;;;;;;5.03;4.40;;;;;;;17.71;73.71;99534.66;5116355;28;20638;-73
2021/08/29 10:42:07;;;;;;;5.10;4.15;;;;;;;17.92;72.56;99533.78;5116473;28;20375;-73
2021/08/29 10:44:35;;;;;;;5.53;4.43;;;;;;;17.62;73.23;99531.91;5115510;28;20187;-73
2021/08/29 10:47:03;;;;;;;6.97;5.18;;;;;;;17.60;73.57;99526.59;5115397;28;20214;-73
2021/08/29 10:49:33;;;;;;;5.22;4.70;;;;;;;17.62;74.06;99524.59;5115497;28;20681;-73
2021/08/29 10:52:00;;;;;;;7.43;4.78;;;;;;;18.01;72.53;99519.34;5115188;28;20188;-73
2021/08/29 10:54:27;;;;;;;5.80;5.25;;;;;;;18.03;71.30;99517.34;5115624;28;20676;-73
2021/08/29 10:56:53;;;;;;;5.65;4.50;;;;;;;18.15;70.95;99522.66;5115907;28;20672;-73
2021/08/29 10:59:25;;;;;;;4.60;4.05;;;;;;;18.13;70.75;99515.50;5115325;28;20185;-73
2021/08/29 11:01:54;;;;;;;6.53;4.10;;;;;;;18.40;70.24;99513.09;5115315;28;20275;-73
2021/08/29 11:04:48;;;;;;;5.00;4.45;;;;;;;18.22;70.70;99515.66;5115390;28;20635;-73
2021/08/29 11:07:37;;;;;;;5.00;4.10;;;;;;;18.11;70.91;99517.50;5115273;28;20207;-74
2021/08/29 11:10:04;;;;;;;5.40;4.43;;;;;;;17.99;71.37;99518.59;5115206;28;20190;-73
2021/08/29 11:12:32;;;;;;;5.38;4.85;;;;;;;17.97;72.11;99517.03;5114707;28;20212;-74
2021/08/29 11:15:00;;;;;;;5.00;4.22;;;;;;;18.46;70.26;99516.13;5114787;28;20212;-73
2021/08/29 11:17:28;;;;;;;3.90;3.60;;;;;;;18.36;70.33;99518.00;5114671;28;20187;-73
2021/08/29 11:20:11;;;;;;;5.57;4.13;;;;;;;18.10;71.80;99513.03;5114449;28;20287;-73
2021/08/29 11:22:40;;;;;;;5.20;4.63;;;;;;;18.17;71.89;99512.50;5115007;28;20499;-74
2021/08/29 11:25:14;;;;;;;6.10;3.85;;;;;;;18.74;70.38;99516.28;5114729;28;20634;-74
2021/08/29 11:28:02;;;;;;;6.00;3.95;;;;;;;18.87;68.89;99513.31;5114909;28;20604;-73